Time;durP1;ratioP1;P1;durP2;ratioP2;P2;SDS_P1;SDS_P2;PMS_P1;PMS_P2;Temp;Humidity;BMP_temperature;BMP_pressure;BME280_temperature;BME280_humidity;BME280_pressure;Samples;Min_cycle;Max_cycle;Signal;HPM_P1;HPM_P2
2022/01/10 00:00:45;;;;;;;0.30;0.30;;;2.80;99.90;;;;;;5034545;28;20025;-76
2022/01/10 00:03:11;;;;;;;0.40;0.40;;;2.70;99.90;;;;;;5051895;28;20104;-76
2022/01/10 00:05:36;;;;;;;0.30;0.30;;;2.70;99.90;;;;;;5033706;28;20065;-75
2022/01/10 00:08:04;;;;;;;2.45;1.38;;;2.70;99.90;;;;;;5017760;28;20028;-76
2022/01/10 00:10:32;;;;;;;0.30;0.30;;;2.70;99.90;;;;;;5034088;28;20029;-76
2022/01/10 00:12:58;;;;;;;0.30;0.30;;;2.60;99.90;;;;;;5034167;28;20025;-76
2022/01/10 00:15:24;;;;;;;0.30;0.30;;;2.50;99.90;;;;;;5034059;28;20033;-76
2022/01/10 00:17:50;;;;;;;0.30;0.30;;;2.50;99.90;;;;;;5017509;28;20143;-76
2022/01/10 00:20:18;;;;;;;0.30;0.30;;;2.70;99.90;;;;;;5033962;28;20086;-76
2022/01/10 00:22:47;;;;;;;0.30;0.30;;;2.60;99.90;;;;;;5033925;28;20024;-76
2022/01/10 00:25:16;;;;;;;0.40;0.40;;;2.50;99.90;;;;;;5051817;28;20025;-76
2022/01/10 00:27:42;;;;;;;0.30;0.30;;;2.60;99.90;;;;;;5033870;28;20048;-76
2022/01/10 00:30:10;;;;;;;0.32;0.32;;;2.50;99.90;;;;;;5033888;28;20025;-76
2022/01/10 00:32:37;;;;;;;0.38;0.38;;;2.60;99.90;;;;;;5017380;28;20033;-76
2022/01/10 00:35:04;;;;;;;0.30;0.30;;;2.60;99.90;;;;;;5051724;28;20507;-76
2022/01/10 00:37:30;;;;;;;0.30;0.30;;;2.70;99.90;;;;;;5033785;28;20048;-76
2022/01/10 00:39:55;;;;;;;0.30;0.30;;;2.60;99.90;;;;;;5033743;28;20064;-76
2022/01/10 00:42:21;;;;;;;0.30;0.30;;;2.50;99.90;;;;;;5017054;28;20053;-76
2022/01/10 00:44:51;;;;;;;0.30;0.30;;;2.60;99.90;;;;;;5051995;28;20021;-76
2022/01/10 00:47:18;;;;;;;0.32;0.32;;;2.80;99.90;;;;;;5033765;28;20018;-76
2022/01/10 00:49:45;;;;;;;0.32;0.32;;;2.80;99.90;;;;;;5033717;28;20021;-76
2022/01/10 00:52:11;;;;;;;0.40;0.40;;;2.70;99.90;;;;;;5051455;28;20401;-76
2022/01/10 00:54:38;;;;;;;0.30;0.30;;;2.70;99.90;;;;;;5033594;28;20388;-76
2022/01/10 00:57:04;;;;;;;0.55;0.55;;;2.70;99.90;;;;;;5033532;28;20032;-76
2022/01/10 00:59:30;;;;;;;0.30;0.30;;;2.60;99.90;;;;;;5017188;28;20151;-76
2022/01/10 01:01:56;;;;;;;0.30;0.30;;;2.40;99.90;;;;;;5033326;28;20120;-76
2022/01/10 01:04:22;;;;;;;0.28;0.28;;;2.30;99.90;;;;;;5017149;28;20026;-76
2022/01/10 01:06:48;;;;;;;0.30;0.30;;;2.30;99.90;;;;;;5033584;28;20159;-76
2022/01/10 01:09:18;;;;;;;0.30;0.30;;;2.20;99.90;;;;;;5051343;28;20100;-76
2022/01/10 01:14:21;;;;;;;0.30;0.30;;;2.00;99.90;;;;;;5051362;28;20033;-76
2022/01/10 01:16:56;;;;;;;0.30;0.30;;;2.10;99.90;;;;;;5054503;28;20031;-76
2022/01/10 01:19:54;;;;;;;0.30;0.30;;;2.10;99.90;;;;;;5037180;28;20075;-76
2022/01/10 01:24:52;;;;;;;0.30;0.30;;;2.20;99.90;;;;;;5054965;28;20028;-76
2022/01/10 01:27:18;;;;;;;0.30;0.30;;;2.20;99.90;;;;;;5036998;28;20027;-76
2022/01/10 01:29:43;;;;;;;0.32;0.32;;;2.20;99.90;;;;;;5054850;28;20385;-76
2022/01/10 01:32:09;;;;;;;0.30;0.30;;;2.30;99.90;;;;;;5054680;28;20033;-76
2022/01/10 01:34:35;;;;;;;0.22;0.22;;;2.20;99.90;;;;;;5020387;28;20029;-76
2022/01/10 01:37:01;;;;;;;0.30;0.30;;;2.10;99.90;;;;;;5054731;28;20072;-76
2022/01/10 01:39:30;;;;;;;0.40;0.40;;;2.20;99.90;;;;;;5036758;28;20039;-76
2022/01/10 01:42:04;;;;;;;0.35;0.35;;;2.40;99.90;;;;;;5036567;28;20048;-76
2022/01/10 01:44:30;;;;;;;0.38;0.38;;;2.40;99.90;;;;;;5036827;28;20562;-76
2022/01/10 01:46:56;;;;;;;0.30;0.30;;;2.40;99.90;;;;;;5054531;28;20062;-76
2022/01/10 01:49:22;;;;;;;0.30;0.30;;;2.30;99.90;;;;;;5054588;28;20021;-76
2022/01/10 01:51:47;;;;;;;0.30;0.30;;;2.40;99.90;;;;;;5036592;28;20112;-77
2022/01/10 01:54:13;;;;;;;0.38;0.38;;;2.30;99.90;;;;;;5054537;28;20029;-76
2022/01/10 01:56:39;;;;;;;0.30;0.30;;;2.40;99.90;;;;;;5054276;28;20036;-76
2022/01/10 01:59:06;;;;;;;0.30;0.30;;;2.60;99.90;;;;;;5036394;28;20046;-76
2022/01/10 02:01:32;;;;;;;0.40;0.40;;;2.60;99.90;;;;;;5036129;28;20036;-76
2022/01/10 02:03:58;;;;;;;0.35;0.35;;;2.60;99.90;;;;;;5054298;28;20389;-76
2022/01/10 02:06:24;;;;;;;0.30;0.30;;;2.50;99.90;;;;;;5036254;28;20017;-76
2022/01/10 02:08:49;;;;;;;0.30;0.30;;;2.40;99.90;;;;;;5054126;28;20087;-76
2022/01/10 02:11:15;;;;;;;13.82;6.47;;;2.30;99.90;;;;;;5053870;28;20512;-76
2022/01/10 02:13:42;;;;;;;0.77;0.70;;;2.30;99.90;;;;;;5036255;28;20051;-76
2022/01/10 02:16:10;;;;;;;0.32;0.32;;;2.40;99.90;;;;;;5036040;28;20024;-76
2022/01/10 02:18:37;;;;;;;0.40;0.40;;;2.40;99.90;;;;;;5054074;28;20060;-76
2022/01/10 02:21:05;;;;;;;0.32;0.32;;;2.50;99.90;;;;;;5035897;28;20551;-76
2022/01/10 02:23:32;;;;;;;0.30;0.30;;;2.50;99.90;;;;;;5036110;28;20017;-76
2022/01/10 02:25:58;;;;;;;4.05;3.72;;;2.60;99.90;;;;;;5053784;28;20075;-76
2022/01/10 02:28:24;;;;;;;0.40;0.40;;;2.60;99.90;;;;;;5053518;28;20044;-76
2022/01/10 02:30:57;;;;;;;0.30;0.30;;;2.50;99.90;;;;;;5035821;28;20052;-76
2022/01/10 02:33:30;;;;;;;0.65;0.60;;;2.50;99.90;;;;;;5053749;28;20025;-76
2022/01/10 02:38:36;;;;;;;0.40;0.40;;;2.70;99.90;;;;;;5053599;28;20040;-76
2022/01/10 02:41:03;;;;;;;0.30;0.30;;;2.40;99.90;;;;;;5035539;28;20052;-76
2022/01/10 02:43:29;;;;;;;0.30;0.30;;;2.40;99.90;;;;;;5019156;28;20062;-76
2022/01/10 02:45:56;;;;;;;0.30;0.30;;;2.60;99.90;;;;;;5053319;28;20021;-76
2022/01/10 02:48:22;;;;;;;0.20;0.20;;;2.70;99.90;;;;;;5035544;28;20024;-76
2022/01/10 02:50:48;;;;;;;0.30;0.30;;;2.60;99.90;;;;;;5053212;28;20381;-76
2022/01/10 02:53:14;;;;;;;0.30;0.30;;;2.70;99.90;;;;;;5019037;28;20070;-76
2022/01/10 02:55:39;;;;;;;0.30;0.30;;;2.70;99.90;;;;;;5053139;28;20033;-76
2022/01/10 02:58:05;;;;;;;0.30;0.30;;;2.80;99.90;;;;;;5053374;28;20032;-76
2022/01/10 03:00:31;;;;;;;0.30;0.30;;;2.60;99.90;;;;;;5035252;28;20396;-76
2022/01/10 03:02:58;;;;;;;0.30;0.30;;;2.50;99.90;;;;;;5053013;28;20049;-76
2022/01/10 03:05:25;;;;;;;0.80;0.55;;;2.60;99.90;;;;;;5018669;28;20028;-76
2022/01/10 03:07:55;;;;;;;0.30;0.30;;;2.70;99.90;;;;;;5035055;28;20551;-76
2022/01/10 03:10:21;;;;;;;0.30;0.30;;;2.80;99.90;;;;;;5052938;28;20017;-76
2022/01/10 03:12:48;;;;;;;0.30;0.30;;;2.80;99.90;;;;;;5052892;28;20039;-77
2022/01/10 03:15:14;;;;;;;0.30;0.30;;;2.60;99.90;;;;;;5035152;28;20517;-76
2022/01/10 03:17:39;;;;;;;0.30;0.30;;;2.70;99.90;;;;;;5034900;28;20063;-76
2022/01/10 03:20:07;;;;;;;0.20;0.20;;;2.60;99.90;;;;;;5034940;28;20098;-76
2022/01/10 03:22:33;;;;;;;0.30;0.30;;;2.60;99.90;;;;;;5067096;23;20136;-79
2022/01/10 03:24:59;;;;;;;0.60;0.57;;;2.70;99.90;;;;;;5020778;28;20049;-78
2022/01/10 03:27:25;;;;;;;0.57;0.57;;;2.80;99.90;;;;;;5036848;28;20452;-81
2022/01/10 03:29:52;;;;;;;0.30;0.30;;;2.90;99.90;;;;;;5036800;28;20056;-81
2022/01/10 03:32:17;;;;;;;0.30;0.30;;;2.80;99.90;;;;;;5020465;28;20116;-80
2022/01/10 03:34:43;;;;;;;0.30;0.30;;;2.90;99.90;;;;;;5036660;28;20544;-81
2022/01/10 03:37:10;;;;;;;0.30;0.30;;;2.90;99.90;;;;;;5036755;28;20510;-79
2022/01/10 03:39:36;;;;;;;0.20;0.20;;;2.90;99.90;;;;;;5019273;28;20032;-80
2022/01/10 03:42:02;;;;;;;0.30;0.30;;;3.00;99.90;;;;;;5037076;28;20067;-81
2022/01/10 03:44:28;;;;;;;0.28;0.28;;;3.00;99.90;;;;;;5036540;28;20087;-80
2022/01/10 03:46:56;;;;;;;0.30;0.30;;;3.00;99.90;;;;;;5036063;28;20077;-80
2022/01/10 03:49:25;;;;;;;0.30;0.30;;;3.00;99.90;;;;;;5020495;28;20108;-81
2022/01/10 03:51:51;;;;;;;0.30;0.30;;;2.90;99.90;;;;;;5036292;28;20021;-81
2022/01/10 03:54:17;;;;;;;0.28;0.28;;;2.80;99.90;;;;;;5036443;28;20025;-81
2022/01/10 03:56:43;;;;;;;0.60;0.60;;;2.70;99.90;;;;;;5036695;28;20108;-81
2022/01/10 03:59:09;;;;;;;0.40;0.40;;;2.80;99.90;;;;;;5054503;28;20108;-80
2022/01/10 04:01:38;;;;;;;0.30;0.30;;;2.90;99.90;;;;;;5020071;28;20121;-80
2022/01/10 04:04:04;;;;;;;0.30;0.30;;;2.90;99.90;;;;;;5036553;28;20017;-79
2022/01/10 04:06:30;;;;;;;0.30;0.30;;;2.80;99.90;;;;;;5020034;28;20361;-80
2022/01/10 04:08:56;;;;;;;0.30;0.30;;;2.50;99.90;;;;;;5036559;28;20108;-81
2022/01/10 04:11:22;;;;;;;0.40;0.40;;;2.30;99.90;;;;;;5036500;28;20397;-80
2022/01/10 04:13:47;;;;;;;0.32;0.32;;;2.30;99.90;;;;;;5036666;28;20029;-81
2022/01/10 04:16:13;;;;;;;0.20;0.20;;;2.40;99.90;;;;;;5020091;28;20025;-80
2022/01/10 04:18:39;;;;;;;0.30;0.30;;;2.40;99.90;;;;;;5036800;28;20017;-82
2022/01/10 04:21:05;;;;;;;0.30;0.30;;;2.50;99.90;;;;;;5054400;28;20068;-81
2022/01/10 04:23:31;;;;;;;0.30;0.30;;;2.70;99.90;;;;;;5054566;28;20115;-82
2022/01/10 04:25:57;;;;;;;0.32;0.32;;;2.70;99.90;;;;;;5020007;28;20488;-81
2022/01/10 04:28:24;;;;;;;0.30;0.30;;;2.70;99.90;;;;;;5036265;28;20033;-80
2022/01/10 04:30:49;;;;;;;0.50;0.50;;;2.70;99.90;;;;;;5036314;28;20056;-82
2022/01/10 04:33:18;;;;;;;0.30;0.30;;;2.80;99.90;;;;;;5054744;28;20029;-82
2022/01/10 04:35:44;;;;;;;0.30;0.30;;;2.80;99.90;;;;;;5036002;28;20021;-80
2022/01/10 04:38:10;;;;;;;0.30;0.30;;;2.90;99.90;;;;;;5019192;28;20079;-82
2022/01/10 04:40:37;;;;;;;0.32;0.32;;;3.00;99.90;;;;;;5036077;28;20029;-82
2022/01/10 04:43:03;;;;;;;0.20;0.20;;;3.10;99.90;;;;;;5035790;28;20029;-81
2022/01/10 04:45:29;;;;;;;0.30;0.30;;;3.00;99.90;;;;;;5019404;28;20128;-82
2022/01/10 04:47:55;;;;;;;0.30;0.30;;;3.00;99.90;;;;;;5035918;28;20095;-82
2022/01/10 04:52:47;;;;;;;0.30;0.30;;;3.00;99.90;;;;;;5039890;28;20480;-79
2022/01/10 04:55:14;;;;;;;0.30;0.30;;;3.00;99.90;;;;;;5057784;28;20025;-81
2022/01/10 04:57:40;;;;;;;0.30;0.30;;;2.90;99.90;;;;;;5023081;28;20029;-79
2022/01/10 05:00:12;;;;;;;1.80;1.75;;;2.70;99.90;;;;;;5023488;28;20122;-79
2022/01/10 05:02:39;;;;;;;0.30;0.30;;;2.60;99.90;;;;;;5039625;28;20036;-78
2022/01/10 05:05:05;;;;;;;0.22;0.22;;;2.70;99.90;;;;;;5039885;28;20492;-79
2022/01/10 05:07:31;;;;;;;0.30;0.30;;;2.70;99.90;;;;;;5023192;28;20107;-80
2022/01/10 05:09:59;;;;;;;0.30;0.30;;;2.80;99.90;;;;;;5039362;28;20049;-79
2022/01/10 05:12:27;;;;;;;0.57;0.57;;;2.90;99.90;;;;;;5057619;28;20029;-80
2022/01/10 05:14:53;;;;;;;0.30;0.30;;;3.00;99.90;;;;;;5039685;28;20025;-80
2022/01/10 05:17:21;;;;;;;0.30;0.30;;;2.90;99.90;;;;;;5023591;28;20028;-82
2022/01/10 05:19:47;;;;;;;0.30;0.30;;;2.90;99.90;;;;;;5022751;28;20044;-80
2022/01/10 05:22:13;;;;;;;0.30;0.30;;;3.00;99.90;;;;;;5022586;28;20037;-81
2022/01/10 05:24:39;;;;;;;0.30;0.30;;;2.90;99.90;;;;;;5039160;28;20017;-81
2022/01/10 05:27:05;;;;;;;0.30;0.30;;;2.90;99.90;;;;;;5039084;28;20021;-80
2022/01/10 05:29:31;;;;;;;0.30;0.30;;;2.90;99.90;;;;;;5039165;28;20021;-81
2022/01/10 05:31:56;;;;;;;0.30;0.30;;;2.90;99.90;;;;;;5039054;28;20494;-81
2022/01/10 05:34:22;;;;;;;0.30;0.30;;;2.80;99.90;;;;;;5038897;28;20029;-81
2022/01/10 05:36:48;;;;;;;0.20;0.20;;;2.90;99.90;;;;;;5056939;28;20060;-82
2022/01/10 05:39:14;;;;;;;0.30;0.30;;;2.90;99.90;;;;;;5038402;28;20132;-81
2022/01/10 05:41:40;;;;;;;0.30;0.30;;;2.90;99.90;;;;;;5038774;28;20029;-81
2022/01/10 05:44:05;;;;;;;0.43;0.35;;;2.90;99.90;;;;;;5039136;28;20107;-81
2022/01/10 05:46:36;;;;;;;0.30;0.30;;;2.80;99.90;;;;;;5022154;28;20477;-80
2022/01/10 05:49:03;;;;;;;0.30;0.30;;;2.60;99.90;;;;;;5038847;28;20029;-81
2022/01/10 05:51:34;;;;;;;0.30;0.30;;;2.50;99.90;;;;;;5021862;28;20039;-80
2022/01/10 05:54:05;;;;;;;0.30;0.30;;;2.60;99.90;;;;;;5022246;28;20473;-79
2022/01/10 05:56:32;;;;;;;0.30;0.30;;;2.80;99.90;;;;;;5022128;28;20028;-81
2022/01/10 05:58:58;;;;;;;0.52;0.52;;;2.80;99.90;;;;;;5038838;28;20025;-80
2022/01/10 06:01:24;;;;;;;0.25;0.25;;;2.90;99.90;;;;;;5038033;28;20025;-81
2022/01/10 06:03:50;;;;;;;0.50;0.50;;;2.80;99.90;;;;;;5038770;28;20537;-80
2022/01/10 06:06:16;;;;;;;0.30;0.30;;;2.80;99.90;;;;;;5039275;28;20376;-81
2022/01/10 06:08:41;;;;;;;0.30;0.30;;;2.60;99.90;;;;;;5022457;28;20017;-80
2022/01/10 06:11:07;;;;;;;0.30;0.30;;;2.60;99.90;;;;;;5038787;28;20043;-80
2022/01/10 06:13:33;;;;;;;0.30;0.30;;;2.70;99.90;;;;;;5022457;28;20033;-81
2022/01/10 06:15:59;;;;;;;0.30;0.30;;;2.80;99.90;;;;;;5056900;28;20404;-82
2022/01/10 06:18:24;;;;;;;0.40;0.40;;;2.80;99.90;;;;;;5056985;28;20040;-80
2022/01/10 06:20:50;;;;;;;0.30;0.30;;;2.80;99.90;;;;;;5038458;28;20396;-81
2022/01/10 06:23:16;;;;;;;0.30;0.30;;;2.60;99.90;;;;;;5021436;28;20480;-79
2022/01/10 06:25:42;;;;;;;0.20;0.20;;;2.50;99.90;;;;;;5038741;28;20553;-81
2022/01/10 06:28:08;;;;;;;0.20;0.20;;;2.60;99.90;;;;;;5056895;28;20067;-81
2022/01/10 06:30:34;;;;;;;0.82;0.82;;;2.70;99.90;;;;;;5022419;28;20407;-81
2022/01/10 06:33:00;;;;;;;0.20;0.20;;;2.60;99.90;;;;;;5039350;28;20021;-81
2022/01/10 06:35:29;;;;;;;0.50;0.50;;;2.60;99.90;;;;;;5041893;28;20040;-81
2022/01/10 06:38:03;;;;;;;0.80;0.52;;;2.60;99.90;;;;;;5025924;28;20033;-82
2022/01/10 06:40:29;;;;;;;0.22;0.22;;;2.70;99.90;;;;;;5039584;28;20033;-82
2022/01/10 06:43:05;;;;;;;0.65;0.65;;;2.60;99.90;;;;;;5047987;28;20071;-82
2022/01/10 06:45:30;;;;;;;3.53;1.05;;;2.50;99.90;;;;;;5048607;28;20488;-80
2022/01/10 06:47:57;;;;;;;0.30;0.30;;;2.60;99.90;;;;;;5026937;28;20024;-78
2022/01/10 06:50:23;;;;;;;0.70;0.68;;;2.70;99.90;;;;;;5022198;28;20476;-80
2022/01/10 06:52:51;;;;;;;0.30;0.30;;;2.80;99.90;;;;;;5056402;28;20025;-81
2022/01/10 06:55:16;;;;;;;0.28;0.28;;;2.70;99.90;;;;;;5038172;28;20025;-80
2022/01/10 06:57:44;;;;;;;0.30;0.30;;;2.70;99.90;;;;;;5033561;28;20024;-80
2022/01/10 07:00:11;;;;;;;0.30;0.30;;;2.70;99.90;;;;;;5040709;28;20038;-80
2022/01/10 07:02:36;;;;;;;0.28;0.28;;;2.70;99.90;;;;;;5047397;28;20036;-82
2022/01/10 07:05:02;;;;;;;0.30;0.30;;;2.70;99.90;;;;;;5055461;28;20476;-80
2022/01/10 07:07:28;;;;;;;0.20;0.20;;;2.80;99.90;;;;;;5037908;28;20021;-83
2022/01/10 07:09:54;;;;;;;0.73;0.73;;;2.90;99.90;;;;;;5036923;28;20088;-80
2022/01/10 07:12:19;;;;;;;0.40;0.40;;;2.60;99.90;;;;;;5042379;28;20035;-81
2022/01/10 07:14:45;;;;;;;2.88;2.70;;;2.80;99.90;;;;;;5037806;28;20519;-82
2022/01/10 07:17:11;;;;;;;0.30;0.30;;;2.70;99.90;;;;;;5055823;28;20488;-80
2022/01/10 07:19:37;;;;;;;0.82;0.77;;;2.80;99.90;;;;;;5033103;28;20104;-80
2022/01/10 07:22:03;;;;;;;2.83;2.72;;;2.90;99.90;;;;;;5054028;28;20036;-82
2022/01/10 07:24:29;;;;;;;0.30;0.30;;;2.90;99.90;;;;;;5054205;28;20025;-81
2022/01/10 07:26:55;;;;;;;0.30;0.30;;;2.70;99.90;;;;;;5025679;28;20023;-80
2022/01/10 07:29:21;;;;;;;0.30;0.30;;;2.70;99.90;;;;;;5054538;28;20017;-81
2022/01/10 07:31:46;;;;;;;0.82;0.82;;;2.70;99.90;;;;;;5037227;28;20372;-82
2022/01/10 07:34:15;;;;;;;0.30;0.30;;;2.80;99.90;;;;;;5037890;28;20025;-82
2022/01/10 07:36:42;;;;;;;1.20;1.20;;;2.90;99.90;;;;;;5036833;28;20025;-82
2022/01/10 07:39:10;;;;;;;1.27;1.27;;;2.80;99.90;;;;;;5055251;28;20021;-82
2022/01/10 07:41:36;;;;;;;0.25;0.25;;;2.80;99.90;;;;;;5054231;28;20071;-81
2022/01/10 07:44:04;;;;;;;0.20;0.20;;;2.90;99.90;;;;;;5054861;28;20029;-82
2022/01/10 07:46:29;;;;;;;0.22;0.22;;;2.90;99.90;;;;;;5020361;28;20017;-80
2022/01/10 07:48:55;;;;;;;0.30;0.30;;;2.80;99.90;;;;;;5047431;28;20029;-82
2022/01/10 07:51:22;;;;;;;0.30;0.30;;;2.80;99.90;;;;;;5036199;28;20028;-82
2022/01/10 07:53:48;;;;;;;1.05;0.40;;;3.00;99.90;;;;;;5036399;28;20024;-81
2022/01/10 07:56:14;;;;;;;0.95;0.95;;;3.00;99.90;;;;;;5036811;28;20028;-79
2022/01/10 07:58:40;;;;;;;0.30;0.30;;;3.10;99.90;;;;;;5035633;28;20025;-80
2022/01/10 08:01:06;;;;;;;0.20;0.20;;;3.10;99.90;;;;;;5037078;28;20384;-81
2022/01/10 08:03:32;;;;;;;0.30;0.30;;;3.10;99.90;;;;;;5042769;28;20037;-81
2022/01/10 08:05:58;;;;;;;0.82;0.82;;;3.00;99.90;;;;;;5035774;28;20028;-81
2022/01/10 08:08:23;;;;;;;0.30;0.30;;;3.00;99.90;;;;;;5052309;28;20622;-80
2022/01/10 08:10:49;;;;;;;0.30;0.30;;;2.90;99.90;;;;;;5036648;28;20100;-81
2022/01/10 08:13:15;;;;;;;0.30;0.30;;;2.80;99.90;;;;;;5022150;28;20025;-81
2022/01/10 08:15:41;;;;;;;0.30;0.30;;;2.70;99.90;;;;;;5036917;28;20512;-81
2022/01/10 08:18:08;;;;;;;0.30;0.30;;;2.70;99.90;;;;;;5020669;28;20033;-81
2022/01/10 08:20:34;;;;;;;0.80;0.40;;;2.70;99.90;;;;;;5022832;28;20071;-81
2022/01/10 08:22:59;;;;;;;0.30;0.30;;;2.70;99.90;;;;;;5071213;28;20728;-82
2022/01/10 08:25:25;;;;;;;0.25;0.25;;;2.70;99.90;;;;;;5052735;28;20028;-81
2022/01/10 08:27:51;;;;;;;0.30;0.30;;;2.80;99.90;;;;;;5031215;28;20484;-81
2022/01/10 08:30:17;;;;;;;0.40;0.40;;;2.70;99.90;;;;;;5020047;28;20025;-80
2022/01/10 08:32:46;;;;;;;0.30;0.30;;;2.80;99.90;;;;;;5036178;28;20037;-82
2022/01/10 08:35:12;;;;;;;0.30;0.30;;;2.90;99.90;;;;;;5019378;28;20508;-82
2022/01/10 08:37:38;;;;;;;0.30;0.30;;;3.00;99.90;;;;;;5022375;28;20029;-82
2022/01/10 08:40:04;;;;;;;0.30;0.30;;;3.10;99.90;;;;;;5027577;28;20029;-82
2022/01/10 08:42:31;;;;;;;0.88;0.88;;;3.10;99.90;;;;;;5036255;28;20027;-81
2022/01/10 08:44:57;;;;;;;0.32;0.32;;;3.20;99.90;;;;;;5020406;28;20021;-82
2022/01/10 08:47:23;;;;;;;3.03;0.75;;;3.10;99.90;;;;;;5037338;28;20029;-82
2022/01/10 08:49:49;;;;;;;0.30;0.30;;;3.20;99.90;;;;;;5041200;28;20017;-81
2022/01/10 08:52:16;;;;;;;0.40;0.40;;;3.20;99.90;;;;;;5026430;28;20029;-81
2022/01/10 08:54:48;;;;;;;0.30;0.30;;;3.20;99.90;;;;;;5042369;28;20021;-80
2022/01/10 08:57:14;;;;;;;0.52;0.52;;;3.30;99.90;;;;;;5015784;28;20025;-81
2022/01/10 08:59:40;;;;;;;0.30;0.30;;;3.40;99.90;;;;;;5023089;28;20501;-81
2022/01/10 09:02:07;;;;;;;0.30;0.30;;;3.40;99.90;;;;;;5029960;28;20108;-81
2022/01/10 09:04:33;;;;;;;0.40;0.40;;;3.30;99.90;;;;;;5052412;28;20029;-80
2022/01/10 09:07:02;;;;;;;0.30;0.30;;;3.30;99.90;;;;;;5052557;28;20062;-80
2022/01/10 09:09:28;;;;;;;0.25;0.25;;;3.30;99.90;;;;;;5053266;28;20013;-81
2022/01/10 09:11:55;;;;;;;0.77;0.77;;;3.50;99.90;;;;;;5053921;28;20021;-81
2022/01/10 09:14:21;;;;;;;1.15;1.05;;;3.60;99.90;;;;;;5024151;28;20032;-79
2022/01/10 09:16:47;;;;;;;2.70;0.68;;;3.40;99.90;;;;;;5017771;28;20075;-79
2022/01/10 09:19:13;;;;;;;0.30;0.30;;;3.00;99.90;;;;;;5042937;28;20032;-80
2022/01/10 09:21:39;;;;;;;0.38;0.38;;;3.10;99.90;;;;;;5050892;28;20032;-80
2022/01/10 09:24:05;;;;;;;0.88;0.88;;;3.20;99.90;;;;;;5022793;28;20025;-80
2022/01/10 09:26:31;;;;;;;1.10;1.10;;;3.20;99.90;;;;;;5040065;28;20021;-81
2022/01/10 09:28:57;;;;;;;0.30;0.30;;;3.40;99.90;;;;;;5030357;28;20022;-81
2022/01/10 09:31:23;;;;;;;3.97;1.65;;;3.30;99.90;;;;;;5040062;28;20384;-81
2022/01/10 09:33:55;;;;;;;5.85;2.78;;;3.30;99.90;;;;;;5040591;28;20369;-82
2022/01/10 09:36:24;;;;;;;1.15;1.15;;;3.20;99.90;;;;;;5047575;28;20542;-80
2022/01/10 09:38:50;;;;;;;0.82;0.82;;;3.00;99.90;;;;;;5048541;28;20029;-80
2022/01/10 09:41:16;;;;;;;0.30;0.30;;;2.80;99.90;;;;;;5034027;28;20025;-80
2022/01/10 09:43:50;;;;;;;0.30;0.30;;;3.00;99.90;;;;;;5048750;28;20384;-80
2022/01/10 09:46:17;;;;;;;0.30;0.30;;;3.10;99.90;;;;;;5048223;28;20017;-80
2022/01/10 09:48:43;;;;;;;0.30;0.30;;;3.20;99.90;;;;;;5036125;28;20075;-80
2022/01/10 09:51:09;;;;;;;0.30;0.30;;;3.30;99.90;;;;;;5049624;28;20025;-81
2022/01/10 09:53:36;;;;;;;0.28;0.28;;;3.40;99.90;;;;;;5035588;28;20048;-81
2022/01/10 09:56:02;;;;;;;0.30;0.30;;;3.40;99.90;;;;;;5025532;28;20036;-81
2022/01/10 09:58:28;;;;;;;0.63;0.63;;;3.50;99.90;;;;;;5043689;28;20060;-81
2022/01/10 10:00:56;;;;;;;0.30;0.30;;;3.30;99.90;;;;;;5043479;28;20040;-80
2022/01/10 10:03:23;;;;;;;0.30;0.30;;;3.20;99.90;;;;;;5050861;28;20047;-81
2022/01/10 10:05:53;;;;;;;0.38;0.38;;;3.20;99.90;;;;;;5035560;28;20085;-81
2022/01/10 10:08:21;;;;;;;0.65;0.65;;;3.10;99.90;;;;;;5055607;28;20056;-81
2022/01/10 10:10:48;;;;;;;0.30;0.30;;;3.00;99.90;;;;;;5046251;28;20029;-80
2022/01/10 10:13:14;;;;;;;0.20;0.20;;;3.10;99.90;;;;;;5049279;28;20103;-81
2022/01/10 10:15:42;;;;;;;0.30;0.30;;;3.10;99.90;;;;;;5049008;28;20472;-81
2022/01/10 10:18:09;;;;;;;0.30;0.30;;;3.10;99.90;;;;;;5025822;28;20560;-80
2022/01/10 10:20:35;;;;;;;0.68;0.68;;;3.10;99.90;;;;;;5035153;28;20143;-81
2022/01/10 10:23:03;;;;;;;1.83;1.73;;;2.90;99.90;;;;;;5046931;28;20466;-81
2022/01/10 10:25:29;;;;;;;0.68;0.68;;;2.80;99.90;;;;;;5035556;28;20358;-79
2022/01/10 10:27:57;;;;;;;0.20;0.20;;;2.90;99.90;;;;;;5055749;28;20112;-81
2022/01/10 10:30:27;;;;;;;0.20;0.20;;;3.10;99.90;;;;;;5036522;28;20451;-80
2022/01/10 10:33:17;;;;;;;2.25;2.05;;;3.20;99.90;;;;;;5038673;28;20103;-81
2022/01/10 10:35:53;;;;;;;0.30;0.30;;;3.10;99.90;;;;;;5038490;28;20036;-80
2022/01/10 10:38:18;;;;;;;0.38;0.38;;;3.20;99.90;;;;;;5042501;28;20563;-81
2022/01/10 10:40:45;;;;;;;2.47;2.38;;;3.20;99.90;;;;;;5050650;28;20055;-80
2022/01/10 10:43:11;;;;;;;2.83;2.58;;;3.30;99.90;;;;;;5042362;28;20396;-80
2022/01/10 10:45:38;;;;;;;0.77;0.38;;;3.10;99.90;;;;;;5021219;28;20112;-81
2022/01/10 10:48:07;;;;;;;0.95;0.95;;;3.00;99.90;;;;;;5046146;28;20021;-81
2022/01/10 10:50:41;;;;;;;1.30;1.30;;;3.10;99.90;;;;;;5045743;28;20108;-81
2022/01/10 10:53:13;;;;;;;0.30;0.30;;;3.10;99.90;;;;;;5055522;28;20028;-81
2022/01/10 10:55:44;;;;;;;;;;;3.10;99.90;;;;;;5028449;28;20052;-81
2022/01/10 10:58:11;;;;;;;0.20;0.20;;;2.90;99.90;;;;;;5049868;28;19966;-81
2022/01/10 11:00:38;;;;;;;0.30;0.30;;;2.90;99.90;;;;;;5027051;28;20044;-81
2022/01/10 11:03:05;;;;;;;0.20;0.20;;;3.00;99.90;;;;;;5041402;28;20420;-81
2022/01/10 11:05:33;;;;;;;0.30;0.30;;;3.10;99.90;;;;;;5024441;28;20100;-79
2022/01/10 11:07:59;;;;;;;0.30;0.30;;;3.20;99.90;;;;;;5055315;28;20412;-80
2022/01/10 11:10:25;;;;;;;0.20;0.20;;;3.20;99.90;;;;;;5029342;28;20488;-80
2022/01/10 11:12:57;;;;;;;0.30;0.30;;;3.20;99.90;;;;;;5044085;28;20036;-80
2022/01/10 11:15:23;;;;;;;0.45;0.45;;;3.10;99.90;;;;;;5025766;28;20047;-80
2022/01/10 11:17:52;;;;;;;0.93;0.82;;;3.20;99.90;;;;;;5015596;28;20393;-79
2022/01/10 11:20:20;;;;;;;0.20;0.20;;;3.10;99.90;;;;;;5020198;28;20097;-80
2022/01/10 11:22:54;;;;;;;0.55;0.55;;;3.10;99.90;;;;;;5047635;28;20476;-80
2022/01/10 11:25:24;;;;;;;0.20;0.20;;;3.20;99.90;;;;;;5040705;28;20028;-81
2022/01/10 11:27:52;;;;;;;0.30;0.30;;;3.30;99.90;;;;;;5042669;28;20353;-81
2022/01/10 11:30:24;;;;;;;0.40;0.40;;;3.40;99.90;;;;;;5031054;28;20032;-81
2022/01/10 11:32:56;;;;;;;1.38;1.38;;;3.50;99.90;;;;;;5025325;28;20548;-81
2022/01/10 11:35:26;;;;;;;0.20;0.20;;;3.50;99.90;;;;;;5024646;28;20052;-80
2022/01/10 11:37:51;;;;;;;0.22;0.22;;;3.40;99.90;;;;;;5043376;28;20033;-80
2022/01/10 11:40:19;;;;;;;0.20;0.20;;;3.30;99.90;;;;;;5052314;28;20025;-80
2022/01/10 11:43:03;;;;;;;1.15;1.13;;;3.30;99.90;;;;;;5037038;28;20021;-80
2022/01/10 11:45:29;;;;;;;2.05;1.95;;;3.30;99.90;;;;;;5049315;28;20028;-80
2022/01/10 11:48:07;;;;;;;0.30;0.30;;;3.40;99.90;;;;;;5036615;28;20100;-80
2022/01/10 11:50:33;;;;;;;2.92;1.63;;;3.40;99.90;;;;;;5057869;28;20021;-79
2022/01/10 11:53:03;;;;;;;0.70;0.70;;;3.30;99.90;;;;;;5044885;28;20032;-80
2022/01/10 11:55:32;;;;;;;0.20;0.20;;;3.10;99.90;;;;;;5054145;28;20419;-80
2022/01/10 11:58:06;;;;;;;0.30;0.30;;;3.10;99.90;;;;;;5029625;28;20035;-80
2022/01/10 12:00:36;;;;;;;0.93;0.85;;;3.10;99.90;;;;;;5025132;28;20029;-79
2022/01/10 12:03:02;;;;;;;0.30;0.30;;;3.20;99.90;;;;;;5042884;28;20143;-79
2022/01/10 12:05:27;;;;;;;0.20;0.20;;;3.20;99.90;;;;;;5052564;28;20456;-79
2022/01/10 12:07:53;;;;;;;0.45;0.45;;;3.50;99.90;;;;;;5043077;28;20027;-80
2022/01/10 12:10:20;;;;;;;2.08;1.65;;;3.70;99.90;;;;;;5052868;28;20021;-79
2022/01/10 12:12:50;;;;;;;1.10;1.10;;;3.60;99.90;;;;;;5037871;28;20030;-79
2022/01/10 12:15:16;;;;;;;4.68;2.80;;;3.60;99.90;;;;;;5040445;28;20033;-78
2022/01/10 12:17:41;;;;;;;0.98;0.98;;;3.50;99.90;;;;;;5052994;28;20546;-79
2022/01/10 12:20:08;;;;;;;1.00;0.73;;;3.70;99.90;;;;;;5052974;28;20033;-80
2022/01/10 12:22:34;;;;;;;0.70;0.70;;;3.80;99.90;;;;;;5051617;28;20021;-78
2022/01/10 12:25:01;;;;;;;2.05;1.33;;;3.80;99.90;;;;;;5025446;28;20033;-80
2022/01/10 12:27:27;;;;;;;2.55;1.88;;;3.60;99.90;;;;;;5045343;28;20028;-80
2022/01/10 12:29:53;;;;;;;0.90;0.68;;;3.80;99.90;;;;;;5052872;28;20025;-79
2022/01/10 12:32:18;;;;;;;1.67;1.52;;;3.80;99.90;;;;;;5034695;28;20029;-79
2022/01/10 12:34:45;;;;;;;3.30;2.42;;;3.80;99.90;;;;;;5030401;28;20125;-79
2022/01/10 12:37:11;;;;;;;0.30;0.30;;;3.60;99.90;;;;;;5052845;28;20029;-79
2022/01/10 12:39:38;;;;;;;7.22;5.22;;;3.50;99.90;;;;;;5023896;28;20029;-79
2022/01/10 12:42:04;;;;;;;1.27;1.25;;;3.60;99.90;;;;;;5047602;28;20021;-80
2022/01/10 12:44:30;;;;;;;6.22;4.43;;;3.80;99.90;;;;;;5054002;28;20021;-80
2022/01/10 12:46:56;;;;;;;0.88;0.88;;;3.70;99.90;;;;;;5042506;28;20017;-80
2022/01/10 12:49:22;;;;;;;0.20;0.20;;;3.70;99.90;;;;;;5025318;28;20108;-81
2022/01/10 12:51:50;;;;;;;2.53;1.50;;;3.70;99.90;;;;;;5053212;28;20296;-81
2022/01/10 12:54:18;;;;;;;0.25;0.25;;;3.70;99.90;;;;;;5030940;28;20061;-81
2022/01/10 12:56:45;;;;;;;0.80;0.77;;;3.70;99.90;;;;;;5039173;28;20029;-79
2022/01/10 12:59:16;;;;;;;1.67;1.58;;;3.50;99.90;;;;;;5030638;28;20452;-79
2022/01/10 13:01:43;;;;;;;2.45;1.35;;;3.40;99.90;;;;;;5041037;28;20021;-80
2022/01/10 13:04:09;;;;;;;0.20;0.20;;;3.40;99.90;;;;;;5034762;28;20473;-78
2022/01/10 13:06:38;;;;;;;0.45;0.45;;;3.40;99.90;;;;;;5053683;28;20096;-80